Tasman Mariner — VRWW8 — position and weather

sailwx.info

Track history (hours):
 
Tides and Currents Weather Stations Pressure Air Temp Water Temp Dewpoint Dewpoint Depression Visibility Wind Speed Wind Dir Waves Ship Positions

Tasman Mariner

Last reported at 2017-Aug-04 08:05 UTC. Time now 2017-Aug-23 04:21 UTC.
Position N 01°15' E 104°02'.
Warning: this ship's position is 18 days out of date.

Length 184 m; beam 27 m; draft 10 m.

Type: Ship (hazmat cat C). MMSI: 477860000.

Date/timePositionNaut miles runAvg speedWind from/ knotsBaromVisibWave heightAir tempDewpointWater temp
2017-Aug-04 08:05N 01°15' E 104°02'114.1
2017-Aug-04 08:00N 01°15' E 104°01'714.4
2017-Aug-04 07:30N 01°12' E 103°54'713.2
2017-Aug-04 07:00N 01°10' E 103°48'612.3
2017-Aug-04 06:30N 01°06' E 103°44'612.2
2017-Aug-04 06:00N 01°03' E 103°38'713.1
2017-Aug-04 05:30N 01°07' E 103°32'713.1
2017-Aug-04 05:00N 01°10' E 103°27'713.1
2017-Aug-04 04:30N 01°14' E 103°21'  
Track history (hours):
 
Tides and Currents Weather Stations Pressure Air Temp Water Temp Dewpoint Dewpoint Depression Visibility Wind Speed Wind Dir Waves Ship Positions

Tasman Mariner

Last reported at 2017-Aug-04 08:05 UTC. Time now 2017-Aug-23 04:21 UTC.
Position N 01°15' E 104°02'.
Warning: this ship's position is 18 days out of date.

Length 184 m; beam 27 m; draft 10 m.

Type: Ship (hazmat cat C). MMSI: 477860000.

Date/timePositionNaut miles runAvg speedWind from/ knotsBaromVisibWave heightAir tempDewpointWater temp
2017-Aug-04 08:05N 01°15' E 104°02'114.1
2017-Aug-04 08:00N 01°15' E 104°01'714.4
2017-Aug-04 07:30N 01°12' E 103°54'713.2
2017-Aug-04 07:00N 01°10' E 103°48'612.3
2017-Aug-04 06:30N 01°06' E 103°44'612.2
2017-Aug-04 06:00N 01°03' E 103°38'713.1
2017-Aug-04 05:30N 01°07' E 103°32'713.1
2017-Aug-04 05:00N 01°10' E 103°27'713.1
2017-Aug-04 04:30N 01°14' E 103°21'  

Dump ship's entire track history